createdAt,value
2022-08-24T00:00:00.000Z,5.69
2022-08-24T00:15:00.000Z,5.82
2022-08-24T00:30:00.000Z,6.79
2022-08-24T00:45:00.000Z,6.55
2022-08-24T01:00:00.000Z,7.78
2022-08-24T01:15:00.000Z,7.38
2022-08-24T01:30:00.000Z,6.84
2022-08-24T01:45:00.000Z,6.71
2022-08-24T02:00:00.000Z,6.1
2022-08-24T02:15:00.000Z,7.03
2022-08-24T02:30:00.000Z,5.78
2022-08-24T02:45:00.000Z,6.26
2022-08-24T03:00:00.000Z,6.4
2022-08-24T03:15:00.000Z,7.39
2022-08-24T03:30:00.000Z,7.18
2022-08-24T03:45:00.000Z,7.52
2022-08-24T04:00:00.000Z,7.18
2022-08-24T04:15:00.000Z,7.6
2022-08-24T04:30:00.000Z,8.66
2022-08-24T04:45:00.000Z,9.13
2022-08-24T05:00:00.000Z,7.59
2022-08-24T05:15:00.000Z,7.86
2022-08-24T05:30:00.000Z,11.07
2022-08-24T05:45:00.000Z,10.04
2022-08-24T06:00:00.000Z,9.13
2022-08-24T06:15:00.000Z,8.55
2022-08-24T06:30:00.000Z,8.94
2022-08-24T06:45:00.000Z,11.92
2022-08-24T07:00:00.000Z,10.04
2022-08-24T07:15:00.000Z,9.38
2022-08-24T07:30:00.000Z,9.66
2022-08-24T07:45:00.000Z,9.36
2022-08-24T08:00:00.000Z,7.09
2022-08-24T08:15:00.000Z,6.31
2022-08-24T08:30:00.000Z,4.24
2022-08-24T08:45:00.000Z,3.78
2022-08-24T09:00:00.000Z,3.86
2022-08-24T09:15:00.000Z,3.6
2022-08-24T09:30:00.000Z,3.78
2022-08-24T09:45:00.000Z,4.06
2022-08-24T10:00:00.000Z,3.45
2022-08-24T10:15:00.000Z,3.48
2022-08-24T10:30:00.000Z,3.55
2022-08-24T10:45:00.000Z,3.27
2022-08-24T11:00:00.000Z,3.36
2022-08-24T11:15:00.000Z,3.26
2022-08-24T11:30:00.000Z,3.14
2022-08-24T11:45:00.000Z,3.13
2022-08-24T12:00:00.000Z,2.95
2022-08-24T12:15:00.000Z,3.14
2022-08-24T12:30:00.000Z,3.14
2022-08-24T12:45:00.000Z,3.38
2022-08-24T13:00:00.000Z,3.37
2022-08-24T13:15:00.000Z,3.21
2022-08-24T13:30:00.000Z,3.24
2022-08-24T13:45:00.000Z,3.25
2022-08-24T14:00:00.000Z,3.38
2022-08-24T14:15:00.000Z,3.34
2022-08-24T14:30:00.000Z,3.22
2022-08-24T14:45:00.000Z,3.28
2022-08-24T15:00:00.000Z,3.29
2022-08-24T15:15:00.000Z,3.44
2022-08-24T15:30:00.000Z,3.33
2022-08-24T15:45:00.000Z,3.16
2022-08-24T16:00:00.000Z,3.26
2022-08-24T16:15:00.000Z,3.25
2022-08-24T16:30:00.000Z,3.23
2022-08-24T16:45:00.000Z,3.54
2022-08-24T17:00:00.000Z,3.69
2022-08-24T17:15:00.000Z,3.53
2022-08-24T17:30:00.000Z,3.66
2022-08-24T17:45:00.000Z,4.21
2022-08-24T18:00:00.000Z,4.78
2022-08-24T18:15:00.000Z,5.32
2022-08-24T18:30:00.000Z,5.62
2022-08-24T18:45:00.000Z,5.39
2022-08-24T19:00:00.000Z,5.07
2022-08-24T19:15:00.000Z,4.93
2022-08-24T19:30:00.000Z,5.08
2022-08-24T19:45:00.000Z,5.09
2022-08-24T20:00:00.000Z,5.08
2022-08-24T20:15:00.000Z,5.31
2022-08-24T20:30:00.000Z,5.2
2022-08-24T20:45:00.000Z,5.62
2022-08-24T21:00:00.000Z,6.71
2022-08-24T21:15:00.000Z,7.48
2022-08-24T21:30:00.000Z,6.93
2022-08-24T21:45:00.000Z,6.05
2022-08-24T22:00:00.000Z,6.25
2022-08-24T22:15:00.000Z,7
2022-08-24T22:30:00.000Z,6.96
2022-08-24T22:45:00.000Z,6.94
2022-08-24T23:00:00.000Z,6.79
2022-08-24T23:15:00.000Z,6.42
2022-08-24T23:30:00.000Z,6.66
2022-08-24T23:45:00.000Z,6.51
